sensor_id;sensor_type;location;lat;lon;timestamp;temperature;humidity
12688;DHT22;6408;59.388;17.798;2023-09-30T00:00:52;15.20;99.90
12688;DHT22;6408;59.388;17.798;2023-09-30T00:03:58;15.20;99.90
12688;DHT22;6408;59.388;17.798;2023-09-30T00:06:42;15.20;99.90
12688;DHT22;6408;59.388;17.798;2023-09-30T00:10:05;15.20;99.90
12688;DHT22;6408;59.388;17.798;2023-09-30T00:22:44;15.30;99.90
12688;DHT22;6408;59.388;17.798;2023-09-30T00:25:12;15.40;99.90
12688;DHT22;6408;59.388;17.798;2023-09-30T00:27:51;15.40;99.90
12688;DHT22;6408;59.388;17.798;2023-09-30T00:36:48;15.40;99.90
12688;DHT22;6408;59.388;17.798;2023-09-30T00:48:16;15.40;99.90
12688;DHT22;6408;59.388;17.798;2023-09-30T00:48:43;15.40;99.90
12688;DHT22;6408;59.388;17.798;2023-09-30T00:51:12;15.40;99.90
12688;DHT22;6408;59.388;17.798;2023-09-30T00:53:43;15.30;99.90
12688;DHT22;6408;59.388;17.798;2023-09-30T00:56:11;15.30;99.90
12688;DHT22;6408;59.388;17.798;2023-09-30T00:59:09;15.40;99.90
12688;DHT22;6408;59.388;17.798;2023-09-30T01:01:56;15.40;99.90
12688;DHT22;6408;59.388;17.798;2023-09-30T01:04:43;15.40;99.90
12688;DHT22;6408;59.388;17.798;2023-09-30T01:07:12;15.40;99.90
12688;DHT22;6408;59.388;17.798;2023-09-30T01:09:45;15.40;99.90
12688;DHT22;6408;59.388;17.798;2023-09-30T01:12:15;15.30;99.90
12688;DHT22;6408;59.388;17.798;2023-09-30T01:15:15;15.30;99.90
12688;DHT22;6408;59.388;17.798;2023-09-30T01:18:10;15.30;99.90
12688;DHT22;6408;59.388;17.798;2023-09-30T01:24:15;15.20;99.90
12688;DHT22;6408;59.388;17.798;2023-09-30T01:30:21;15.10;99.90
12688;DHT22;6408;59.388;17.798;2023-09-30T01:32:57;15.10;99.90
12688;DHT22;6408;59.388;17.798;2023-09-30T01:35:46;15.10;99.90
12688;DHT22;6408;59.388;17.798;2023-09-30T01:38:14;15.00;99.90
12688;DHT22;6408;59.388;17.798;2023-09-30T01:41:01;15.10;99.90
12688;DHT22;6408;59.388;17.798;2023-09-30T01:46:51;15.00;99.90
12688;DHT22;6408;59.388;17.798;2023-09-30T01:53:08;14.90;99.90
12688;DHT22;6408;59.388;17.798;2023-09-30T01:56:33;14.80;99.90
12688;DHT22;6408;59.388;17.798;2023-09-30T01:59:14;14.80;99.90
12688;DHT22;6408;59.388;17.798;2023-09-30T02:02:05;14.60;99.90
12688;DHT22;6408;59.388;17.798;2023-09-30T02:04:40;14.50;99.90
12688;DHT22;6408;59.388;17.798;2023-09-30T02:07:11;14.50;99.90
12688;DHT22;6408;59.388;17.798;2023-09-30T02:10:02;14.40;99.90
12688;DHT22;6408;59.388;17.798;2023-09-30T02:12:59;14.40;99.90
12688;DHT22;6408;59.388;17.798;2023-09-30T02:15:49;14.30;99.90
12688;DHT22;6408;59.388;17.798;2023-09-30T02:25:06;14.10;99.90
12688;DHT22;6408;59.388;17.798;2023-09-30T02:34:09;13.70;99.90
12688;DHT22;6408;59.388;17.798;2023-09-30T02:36:49;13.70;99.90
12688;DHT22;6408;59.388;17.798;2023-09-30T02:39:35;13.70;99.90
12688;DHT22;6408;59.388;17.798;2023-09-30T02:45:08;13.60;99.90
12688;DHT22;6408;59.388;17.798;2023-09-30T02:47:36;13.50;99.90
12688;DHT22;6408;59.388;17.798;2023-09-30T02:50:45;13.50;99.90
12688;DHT22;6408;59.388;17.798;2023-09-30T02:56:44;13.50;99.90
12688;DHT22;6408;59.388;17.798;2023-09-30T02:59:25;13.60;99.90
12688;DHT22;6408;59.388;17.798;2023-09-30T03:02:31;13.50;99.90
12688;DHT22;6408;59.388;17.798;2023-09-30T03:15:43;13.70;99.90
12688;DHT22;6408;59.388;17.798;2023-09-30T03:18:17;13.70;99.90
12688;DHT22;6408;59.388;17.798;2023-09-30T03:21:18;13.70;99.90
12688;DHT22;6408;59.388;17.798;2023-09-30T03:27:20;13.70;99.90
12688;DHT22;6408;59.388;17.798;2023-09-30T03:33:19;13.70;99.90
12688;DHT22;6408;59.388;17.798;2023-09-30T03:36:11;13.70;99.90
12688;DHT22;6408;59.388;17.798;2023-09-30T03:46:01;13.70;99.90
12688;DHT22;6408;59.388;17.798;2023-09-30T03:55:51;13.70;99.90
12688;DHT22;6408;59.388;17.798;2023-09-30T03:58:46;13.70;99.90
12688;DHT22;6408;59.388;17.798;2023-09-30T04:01:32;13.70;99.90
12688;DHT22;6408;59.388;17.798;2023-09-30T04:04:13;13.70;99.90
12688;DHT22;6408;59.388;17.798;2023-09-30T04:06:52;13.70;99.90
12688;DHT22;6408;59.388;17.798;2023-09-30T04:09:22;13.60;99.90
12688;DHT22;6408;59.388;17.798;2023-09-30T04:12:11;13.50;99.90
12688;DHT22;6408;59.388;17.798;2023-09-30T04:14:53;13.40;99.90
12688;DHT22;6408;59.388;17.798;2023-09-30T04:17:20;13.40;99.90
12688;DHT22;6408;59.388;17.798;2023-09-30T04:19:49;13.30;99.90
12688;DHT22;6408;59.388;17.798;2023-09-30T04:22:41;13.20;99.90
12688;DHT22;6408;59.388;17.798;2023-09-30T04:25:32;13.30;99.90
12688;DHT22;6408;59.388;17.798;2023-09-30T04:31:30;13.30;99.90
12688;DHT22;6408;59.388;17.798;2023-09-30T04:33:58;13.30;99.90
12688;DHT22;6408;59.388;17.798;2023-09-30T04:36:25;13.20;99.90
12688;DHT22;6408;59.388;17.798;2023-09-30T04:39:06;13.10;99.90
12688;DHT22;6408;59.388;17.798;2023-09-30T04:41:35;13.10;99.90
12688;DHT22;6408;59.388;17.798;2023-09-30T04:44:16;13.00;99.90
12688;DHT22;6408;59.388;17.798;2023-09-30T04:47:13;13.00;99.90
12688;DHT22;6408;59.388;17.798;2023-09-30T04:49:47;13.00;99.90
12688;DHT22;6408;59.388;17.798;2023-09-30T04:52:29;13.00;99.90
12688;DHT22;6408;59.388;17.798;2023-09-30T04:55:03;12.90;99.90
12688;DHT22;6408;59.388;17.798;2023-09-30T04:57:46;12.90;99.90
12688;DHT22;6408;59.388;17.798;2023-09-30T05:00:15;12.90;99.90
12688;DHT22;6408;59.388;17.798;2023-09-30T05:02:58;12.90;99.90
12688;DHT22;6408;59.388;17.798;2023-09-30T05:05:35;12.90;99.90
12688;DHT22;6408;59.388;17.798;2023-09-30T05:08:31;12.90;99.90
12688;DHT22;6408;59.388;17.798;2023-09-30T05:10:59;13.00;99.90
12688;DHT22;6408;59.388;17.798;2023-09-30T05:14:05;13.10;99.90
12688;DHT22;6408;59.388;17.798;2023-09-30T05:16:53;13.20;99.90
12688;DHT22;6408;59.388;17.798;2023-09-30T05:19:31;13.20;99.90
12688;DHT22;6408;59.388;17.798;2023-09-30T05:22:07;13.20;99.90
12688;DHT22;6408;59.388;17.798;2023-09-30T05:24:49;13.20;99.90
12688;DHT22;6408;59.388;17.798;2023-09-30T05:27:40;13.20;99.90
12688;DHT22;6408;59.388;17.798;2023-09-30T05:30:31;13.20;99.90
12688;DHT22;6408;59.388;17.798;2023-09-30T05:35:53;13.20;99.90
12688;DHT22;6408;59.388;17.798;2023-09-30T05:38:23;13.20;99.90
12688;DHT22;6408;59.388;17.798;2023-09-30T05:40:53;13.20;99.90
12688;DHT22;6408;59.388;17.798;2023-09-30T05:43:23;13.20;99.90
12688;DHT22;6408;59.388;17.798;2023-09-30T05:46:05;13.20;99.90
12688;DHT22;6408;59.388;17.798;2023-09-30T05:48:38;13.30;99.90
12688;DHT22;6408;59.388;17.798;2023-09-30T05:51:11;13.30;99.90
12688;DHT22;6408;59.388;17.798;2023-09-30T05:53:40;13.30;99.90
12688;DHT22;6408;59.388;17.798;2023-09-30T05:56:15;13.30;99.90
12688;DHT22;6408;59.388;17.798;2023-09-30T05:58:42;13.20;99.90
12688;DHT22;6408;59.388;17.798;2023-09-30T06:01:18;13.20;99.90
12688;DHT22;6408;59.388;17.798;2023-09-30T06:04:09;13.20;99.90
12688;DHT22;6408;59.388;17.798;2023-09-30T06:06:52;13.30;99.90
12688;DHT22;6408;59.388;17.798;2023-09-30T06:12:19;13.30;99.90
12688;DHT22;6408;59.388;17.798;2023-09-30T06:15:01;13.30;99.90
12688;DHT22;6408;59.388;17.798;2023-09-30T06:17:44;13.40;99.90
12688;DHT22;6408;59.388;17.798;2023-09-30T06:20:13;13.30;99.90
12688;DHT22;6408;59.388;17.798;2023-09-30T06:22:52;13.30;99.90
12688;DHT22;6408;59.388;17.798;2023-09-30T06:25:39;13.30;99.90
12688;DHT22;6408;59.388;17.798;2023-09-30T06:31:37;13.50;99.90
12688;DHT22;6408;59.388;17.798;2023-09-30T06:34:05;13.50;99.90
12688;DHT22;6408;59.388;17.798;2023-09-30T06:36:46;13.50;99.90
12688;DHT22;6408;59.388;17.798;2023-09-30T06:39:22;13.40;99.90
12688;DHT22;6408;59.388;17.798;2023-09-30T06:41:59;13.50;99.90
12688;DHT22;6408;59.388;17.798;2023-09-30T06:44:38;13.50;99.90
12688;DHT22;6408;59.388;17.798;2023-09-30T06:47:08;13.50;99.90
12688;DHT22;6408;59.388;17.798;2023-09-30T06:49:40;13.60;99.90
12688;DHT22;6408;59.388;17.798;2023-09-30T06:52:17;13.60;99.90
12688;DHT22;6408;59.388;17.798;2023-09-30T06:58:15;13.90;99.90
12688;DHT22;6408;59.388;17.798;2023-09-30T07:00:59;14.00;99.90
12688;DHT22;6408;59.388;17.798;2023-09-30T07:03:40;13.90;99.90
12688;DHT22;6408;59.388;17.798;2023-09-30T07:06:07;13.90;99.90
12688;DHT22;6408;59.388;17.798;2023-09-30T07:08:47;13.90;99.90
12688;DHT22;6408;59.388;17.798;2023-09-30T07:11:46;14.00;99.90
12688;DHT22;6408;59.388;17.798;2023-09-30T07:14:50;13.90;99.90
12688;DHT22;6408;59.388;17.798;2023-09-30T07:17:20;14.10;99.90
12688;DHT22;6408;59.388;17.798;2023-09-30T07:19:51;14.00;99.90
12688;DHT22;6408;59.388;17.798;2023-09-30T07:22:32;14.20;99.90
12688;DHT22;6408;59.388;17.798;2023-09-30T07:28:44;14.70;99.90
12688;DHT22;6408;59.388;17.798;2023-09-30T07:34:32;15.20;99.90
12688;DHT22;6408;59.388;17.798;2023-09-30T07:43:32;15.10;99.90
12688;DHT22;6408;59.388;17.798;2023-09-30T07:49:22;16.30;99.90
12688;DHT22;6408;59.388;17.798;2023-09-30T07:52:30;17.10;99.90
12688;DHT22;6408;59.388;17.798;2023-09-30T07:55:19;18.20;99.90
12688;DHT22;6408;59.388;17.798;2023-09-30T07:58:02;18.00;99.90
12688;DHT22;6408;59.388;17.798;2023-09-30T08:01:03;17.70;99.90
12688;DHT22;6408;59.388;17.798;2023-09-30T08:03:43;18.60;99.90
12688;DHT22;6408;59.388;17.798;2023-09-30T08:06:29;19.00;99.90
12688;DHT22;6408;59.388;17.798;2023-09-30T08:13:04;19.80;99.90
12688;DHT22;6408;59.388;17.798;2023-09-30T08:22:10;24.00;99.90
12688;DHT22;6408;59.388;17.798;2023-09-30T08:24:51;24.60;99.90
12688;DHT22;6408;59.388;17.798;2023-09-30T08:27:49;24.50;99.90
12688;DHT22;6408;59.388;17.798;2023-09-30T08:33:39;25.50;99.90
12688;DHT22;6408;59.388;17.798;2023-09-30T08:36:39;25.70;99.90
12688;DHT22;6408;59.388;17.798;2023-09-30T08:39:24;23.30;99.90
12688;DHT22;6408;59.388;17.798;2023-09-30T08:42:06;20.70;99.90
12688;DHT22;6408;59.388;17.798;2023-09-30T08:44:42;21.70;99.90
12688;DHT22;6408;59.388;17.798;2023-09-30T08:47:11;22.60;99.90
12688;DHT22;6408;59.388;17.798;2023-09-30T08:53:01;22.40;99.90
12688;DHT22;6408;59.388;17.798;2023-09-30T09:22:56;19.70;99.90
12688;DHT22;6408;59.388;17.798;2023-09-30T09:25:38;23.90;99.90
12688;DHT22;6408;59.388;17.798;2023-09-30T09:29:00;25.50;99.90
12688;DHT22;6408;59.388;17.798;2023-09-30T09:31:36;26.00;99.90
12688;DHT22;6408;59.388;17.798;2023-09-30T09:34:34;24.60;99.90
12688;DHT22;6408;59.388;17.798;2023-09-30T09:37:18;20.80;99.90
12688;DHT22;6408;59.388;17.798;2023-09-30T09:47:31;18.00;99.90
12688;DHT22;6408;59.388;17.798;2023-09-30T09:53:28;22.00;99.90
12688;DHT22;6408;59.388;17.798;2023-09-30T09:56:06;20.80;99.90
12688;DHT22;6408;59.388;17.798;2023-09-30T09:58:36;20.70;99.90
12688;DHT22;6408;59.388;17.798;2023-09-30T10:01:09;22.40;99.90
12688;DHT22;6408;59.388;17.798;2023-09-30T10:11:44;26.60;99.90
12688;DHT22;6408;59.388;17.798;2023-09-30T10:14:38;26.60;99.90
12688;DHT22;6408;59.388;17.798;2023-09-30T10:17:12;24.00;99.90
12688;DHT22;6408;59.388;17.798;2023-09-30T10:20:06;22.00;99.90
12688;DHT22;6408;59.388;17.798;2023-09-30T10:26:19;18.70;99.90
12688;DHT22;6408;59.388;17.798;2023-09-30T10:29:12;17.70;99.90
12688;DHT22;6408;59.388;17.798;2023-09-30T10:31:55;16.90;99.90
12688;DHT22;6408;59.388;17.798;2023-09-30T10:35:00;16.60;99.90
12688;DHT22;6408;59.388;17.798;2023-09-30T10:37:34;16.30;99.90
12688;DHT22;6408;59.388;17.798;2023-09-30T10:40:41;16.00;99.90
12688;DHT22;6408;59.388;17.798;2023-09-30T10:43:43;15.90;99.90
12688;DHT22;6408;59.388;17.798;2023-09-30T10:46:32;15.90;99.90
12688;DHT22;6408;59.388;17.798;2023-09-30T10:52:06;16.70;99.90
12688;DHT22;6408;59.388;17.798;2023-09-30T10:54:51;16.50;99.90
12688;DHT22;6408;59.388;17.798;2023-09-30T10:57:27;16.90;99.90
12688;DHT22;6408;59.388;17.798;2023-09-30T11:03:05;16.50;99.90
12688;DHT22;6408;59.388;17.798;2023-09-30T11:09:06;20.90;99.90
12688;DHT22;6408;59.388;17.798;2023-09-30T11:11:49;21.10;99.90
12688;DHT22;6408;59.388;17.798;2023-09-30T11:18:25;20.00;99.90
12688;DHT22;6408;59.388;17.798;2023-09-30T11:21:24;19.30;99.90
12688;DHT22;6408;59.388;17.798;2023-09-30T11:24:27;18.70;99.90
12688;DHT22;6408;59.388;17.798;2023-09-30T11:27:44;18.40;99.90
12688;DHT22;6408;59.388;17.798;2023-09-30T11:37:03;17.40;99.90
12688;DHT22;6408;59.388;17.798;2023-09-30T11:46:49;17.70;99.90
12688;DHT22;6408;59.388;17.798;2023-09-30T11:49:38;17.80;99.90
12688;DHT22;6408;59.388;17.798;2023-09-30T11:55:51;18.10;99.90
12688;DHT22;6408;59.388;17.798;2023-09-30T11:58:23;17.90;99.90
12688;DHT22;6408;59.388;17.798;2023-09-30T12:00:57;17.90;99.90
12688;DHT22;6408;59.388;17.798;2023-09-30T12:03:48;18.00;99.90
12688;DHT22;6408;59.388;17.798;2023-09-30T12:13:16;17.60;99.90
12688;DHT22;6408;59.388;17.798;2023-09-30T12:16:15;17.60;99.90
12688;DHT22;6408;59.388;17.798;2023-09-30T12:19:10;17.70;99.90
12688;DHT22;6408;59.388;17.798;2023-09-30T12:22:02;17.70;99.90
12688;DHT22;6408;59.388;17.798;2023-09-30T12:24:41;17.40;99.90
12688;DHT22;6408;59.388;17.798;2023-09-30T12:36:55;17.30;99.90
12688;DHT22;6408;59.388;17.798;2023-09-30T12:40:13;17.70;99.90
12688;DHT22;6408;59.388;17.798;2023-09-30T12:42:55;17.70;99.90
12688;DHT22;6408;59.388;17.798;2023-09-30T12:45:26;17.30;99.90
12688;DHT22;6408;59.388;17.798;2023-09-30T12:48:16;17.20;99.90
12688;DHT22;6408;59.388;17.798;2023-09-30T12:51:05;17.10;99.90
12688;DHT22;6408;59.388;17.798;2023-09-30T12:53:37;17.00;99.90
12688;DHT22;6408;59.388;17.798;2023-09-30T13:03:20;17.30;99.90
12688;DHT22;6408;59.388;17.798;2023-09-30T13:06:01;17.20;99.90
12688;DHT22;6408;59.388;17.798;2023-09-30T13:12:21;17.00;99.90
12688;DHT22;6408;59.388;17.798;2023-09-30T13:15:25;16.90;99.90
12688;DHT22;6408;59.388;17.798;2023-09-30T13:18:09;17.00;99.90
12688;DHT22;6408;59.388;17.798;2023-09-30T13:20:38;17.00;99.90
12688;DHT22;6408;59.388;17.798;2023-09-30T13:23:08;17.10;99.90
12688;DHT22;6408;59.388;17.798;2023-09-30T13:25:38;17.10;99.90
12688;DHT22;6408;59.388;17.798;2023-09-30T13:28:32;17.10;99.90
12688;DHT22;6408;59.388;17.798;2023-09-30T13:31:01;17.00;99.90
12688;DHT22;6408;59.388;17.798;2023-09-30T13:33:41;17.00;99.90
12688;DHT22;6408;59.388;17.798;2023-09-30T13:36:11;16.80;99.90
12688;DHT22;6408;59.388;17.798;2023-09-30T13:39:08;16.70;99.90
12688;DHT22;6408;59.388;17.798;2023-09-30T13:41:47;16.60;99.90
12688;DHT22;6408;59.388;17.798;2023-09-30T13:44:45;16.60;99.90
12688;DHT22;6408;59.388;17.798;2023-09-30T13:47:31;16.70;99.90
12688;DHT22;6408;59.388;17.798;2023-09-30T13:50:12;16.80;99.90
12688;DHT22;6408;59.388;17.798;2023-09-30T13:52:47;16.70;99.90
12688;DHT22;6408;59.388;17.798;2023-09-30T13:55:22;16.60;99.90
12688;DHT22;6408;59.388;17.798;2023-09-30T13:58:36;16.50;99.90
12688;DHT22;6408;59.388;17.798;2023-09-30T14:04:04;16.60;99.90
12688;DHT22;6408;59.388;17.798;2023-09-30T14:06:32;16.50;99.90
12688;DHT22;6408;59.388;17.798;2023-09-30T14:09:55;16.50;99.90
12688;DHT22;6408;59.388;17.798;2023-09-30T14:12:29;16.50;99.90
12688;DHT22;6408;59.388;17.798;2023-09-30T14:15:07;16.60;99.90
12688;DHT22;6408;59.388;17.798;2023-09-30T14:17:39;16.60;99.90
12688;DHT22;6408;59.388;17.798;2023-09-30T14:20:24;16.50;99.90
12688;DHT22;6408;59.388;17.798;2023-09-30T14:22:54;16.50;99.90
12688;DHT22;6408;59.388;17.798;2023-09-30T14:25:32;16.50;99.90
12688;DHT22;6408;59.388;17.798;2023-09-30T14:28:03;16.40;99.90
12688;DHT22;6408;59.388;17.798;2023-09-30T14:33:54;16.20;99.90
12688;DHT22;6408;59.388;17.798;2023-09-30T14:36:52;16.20;99.90
12688;DHT22;6408;59.388;17.798;2023-09-30T14:39:34;16.30;99.90
12688;DHT22;6408;59.388;17.798;2023-09-30T14:42:09;16.20;99.90
12688;DHT22;6408;59.388;17.798;2023-09-30T14:45:17;16.00;99.90
12688;DHT22;6408;59.388;17.798;2023-09-30T14:47:54;15.90;99.90
12688;DHT22;6408;59.388;17.798;2023-09-30T14:50:32;15.90;99.90
12688;DHT22;6408;59.388;17.798;2023-09-30T14:53:08;15.80;99.90
12688;DHT22;6408;59.388;17.798;2023-09-30T14:55:36;15.80;99.90
12688;DHT22;6408;59.388;17.798;2023-09-30T14:58:16;15.70;99.90
12688;DHT22;6408;59.388;17.798;2023-09-30T15:00:46;15.60;99.90
12688;DHT22;6408;59.388;17.798;2023-09-30T15:03:29;15.70;99.90
12688;DHT22;6408;59.388;17.798;2023-09-30T15:06:01;15.80;99.90
12688;DHT22;6408;59.388;17.798;2023-09-30T15:08:36;15.70;99.90
12688;DHT22;6408;59.388;17.798;2023-09-30T15:11:17;15.70;99.90
12688;DHT22;6408;59.388;17.798;2023-09-30T15:14:11;15.70;99.90
12688;DHT22;6408;59.388;17.798;2023-09-30T15:17:10;15.60;99.90
12688;DHT22;6408;59.388;17.798;2023-09-30T15:20:19;15.60;99.90
12688;DHT22;6408;59.388;17.798;2023-09-30T15:23:02;15.60;99.90
12688;DHT22;6408;59.388;17.798;2023-09-30T15:29:12;15.70;99.90
12688;DHT22;6408;59.388;17.798;2023-09-30T15:31:56;15.70;99.90
12688;DHT22;6408;59.388;17.798;2023-09-30T15:48:22;15.40;99.90
12688;DHT22;6408;59.388;17.798;2023-09-30T15:51:12;15.20;99.90
12688;DHT22;6408;59.388;17.798;2023-09-30T15:54:23;15.20;99.90
12688;DHT22;6408;59.388;17.798;2023-09-30T15:57:05;15.20;99.90
12688;DHT22;6408;59.388;17.798;2023-09-30T15:59:52;15.10;99.90
12688;DHT22;6408;59.388;17.798;2023-09-30T16:02:26;15.10;99.90
12688;DHT22;6408;59.388;17.798;2023-09-30T16:08:07;15.00;99.90
12688;DHT22;6408;59.388;17.798;2023-09-30T16:11:01;15.00;99.90
12688;DHT22;6408;59.388;17.798;2023-09-30T16:23:57;14.90;99.90
12688;DHT22;6408;59.388;17.798;2023-09-30T16:26:37;14.90;99.90
12688;DHT22;6408;59.388;17.798;2023-09-30T16:29:59;14.80;99.90
12688;DHT22;6408;59.388;17.798;2023-09-30T16:33:25;14.80;99.90
12688;DHT22;6408;59.388;17.798;2023-09-30T16:36:33;14.70;99.90
12688;DHT22;6408;59.388;17.798;2023-09-30T16:39:18;14.70;99.90
12688;DHT22;6408;59.388;17.798;2023-09-30T16:45:38;14.70;99.90
12688;DHT22;6408;59.388;17.798;2023-09-30T17:05:16;14.50;99.90
12688;DHT22;6408;59.388;17.798;2023-09-30T17:14:41;14.40;99.90
12688;DHT22;6408;59.388;17.798;2023-09-30T17:20:45;14.30;99.90
12688;DHT22;6408;59.388;17.798;2023-09-30T17:30:18;14.30;99.90
12688;DHT22;6408;59.388;17.798;2023-09-30T17:33:20;14.20;99.90
12688;DHT22;6408;59.388;17.798;2023-09-30T17:40:17;14.10;99.90
12688;DHT22;6408;59.388;17.798;2023-09-30T17:43:17;14.10;99.90
12688;DHT22;6408;59.388;17.798;2023-09-30T17:46:14;14.10;99.90
12688;DHT22;6408;59.388;17.798;2023-09-30T17:49:16;14.10;99.90
12688;DHT22;6408;59.388;17.798;2023-09-30T17:52:17;14.00;99.90
12688;DHT22;6408;59.388;17.798;2023-09-30T18:02:11;13.90;99.90
12688;DHT22;6408;59.388;17.798;2023-09-30T18:05:10;13.90;99.90
12688;DHT22;6408;59.388;17.798;2023-09-30T18:11:42;13.90;99.90
12688;DHT22;6408;59.388;17.798;2023-09-30T18:18:24;13.80;99.90
12688;DHT22;6408;59.388;17.798;2023-09-30T18:25:01;13.70;99.90
12688;DHT22;6408;59.388;17.798;2023-09-30T18:27:50;13.70;99.90
12688;DHT22;6408;59.388;17.798;2023-09-30T18:31:02;13.70;99.90
12688;DHT22;6408;59.388;17.798;2023-09-30T18:36:49;13.60;99.90
12688;DHT22;6408;59.388;17.798;2023-09-30T18:45:57;13.50;99.90
12688;DHT22;6408;59.388;17.798;2023-09-30T18:48:55;13.50;99.90
12688;DHT22;6408;59.388;17.798;2023-09-30T18:51:51;13.50;99.90
12688;DHT22;6408;59.388;17.798;2023-09-30T18:54:54;13.50;99.90
12688;DHT22;6408;59.388;17.798;2023-09-30T18:57:49;13.50;99.90
12688;DHT22;6408;59.388;17.798;2023-09-30T19:00:34;13.40;99.90
12688;DHT22;6408;59.388;17.798;2023-09-30T19:06:57;13.40;99.90
12688;DHT22;6408;59.388;17.798;2023-09-30T19:16:07;13.40;99.90
12688;DHT22;6408;59.388;17.798;2023-09-30T19:18:54;13.40;99.90
12688;DHT22;6408;59.388;17.798;2023-09-30T19:21:24;13.40;99.90
12688;DHT22;6408;59.388;17.798;2023-09-30T19:24:11;13.40;99.90
12688;DHT22;6408;59.388;17.798;2023-09-30T19:27:32;13.50;99.90
12688;DHT22;6408;59.388;17.798;2023-09-30T19:37:09;13.50;99.90
12688;DHT22;6408;59.388;17.798;2023-09-30T19:43:55;13.40;99.90
12688;DHT22;6408;59.388;17.798;2023-09-30T19:47:01;13.40;99.90
12688;DHT22;6408;59.388;17.798;2023-09-30T19:49:46;13.30;99.90
12688;DHT22;6408;59.388;17.798;2023-09-30T19:52:17;13.30;99.90
12688;DHT22;6408;59.388;17.798;2023-09-30T19:54:46;13.20;99.90
12688;DHT22;6408;59.388;17.798;2023-09-30T19:57:35;13.20;99.90
12688;DHT22;6408;59.388;17.798;2023-09-30T20:00:06;13.20;99.90
12688;DHT22;6408;59.388;17.798;2023-09-30T20:03:22;13.10;99.90
12688;DHT22;6408;59.388;17.798;2023-09-30T20:06:37;13.20;99.90
12688;DHT22;6408;59.388;17.798;2023-09-30T20:12:53;13.10;99.90
12688;DHT22;6408;59.388;17.798;2023-09-30T20:15:36;13.10;99.90
12688;DHT22;6408;59.388;17.798;2023-09-30T20:18:33;13.00;99.90
12688;DHT22;6408;59.388;17.798;2023-09-30T20:21:49;13.00;99.90
12688;DHT22;6408;59.388;17.798;2023-09-30T20:24:50;12.90;99.90
12688;DHT22;6408;59.388;17.798;2023-09-30T20:31:14;12.90;99.90
12688;DHT22;6408;59.388;17.798;2023-09-30T20:34:07;12.90;99.90
12688;DHT22;6408;59.388;17.798;2023-09-30T20:36:39;12.90;99.90
12688;DHT22;6408;59.388;17.798;2023-09-30T20:39:18;12.80;99.90
12688;DHT22;6408;59.388;17.798;2023-09-30T20:42:23;12.70;99.90
12688;DHT22;6408;59.388;17.798;2023-09-30T20:44:51;12.70;99.90
12688;DHT22;6408;59.388;17.798;2023-09-30T20:51:43;12.70;99.90
12688;DHT22;6408;59.388;17.798;2023-09-30T20:55:07;12.50;99.90
12688;DHT22;6408;59.388;17.798;2023-09-30T20:58:05;12.60;99.90
12688;DHT22;6408;59.388;17.798;2023-09-30T21:00:52;12.50;99.90
12688;DHT22;6408;59.388;17.798;2023-09-30T21:16:46;12.40;99.90
12688;DHT22;6408;59.388;17.798;2023-09-30T21:19:54;12.40;99.90
12688;DHT22;6408;59.388;17.798;2023-09-30T21:22:44;12.30;99.90
12688;DHT22;6408;59.388;17.798;2023-09-30T21:25:38;12.30;99.90
12688;DHT22;6408;59.388;17.798;2023-09-30T21:28:26;12.30;99.90
12688;DHT22;6408;59.388;17.798;2023-09-30T21:31:21;12.30;99.90
12688;DHT22;6408;59.388;17.798;2023-09-30T21:34:04;12.20;99.90
12688;DHT22;6408;59.388;17.798;2023-09-30T21:40:28;12.20;99.90
12688;DHT22;6408;59.388;17.798;2023-09-30T21:43:15;12.20;99.90
12688;DHT22;6408;59.388;17.798;2023-09-30T21:46:36;12.20;99.90
12688;DHT22;6408;59.388;17.798;2023-09-30T21:49:38;12.20;99.90
12688;DHT22;6408;59.388;17.798;2023-09-30T22:02:37;12.00;99.90
12688;DHT22;6408;59.388;17.798;2023-09-30T22:11:43;11.90;99.90
12688;DHT22;6408;59.388;17.798;2023-09-30T22:14:22;11.90;99.90
12688;DHT22;6408;59.388;17.798;2023-09-30T22:24:19;11.70;99.90
12688;DHT22;6408;59.388;17.798;2023-09-30T22:27:03;11.70;99.90
12688;DHT22;6408;59.388;17.798;2023-09-30T22:29:48;11.80;99.90
12688;DHT22;6408;59.388;17.798;2023-09-30T22:32:17;11.80;99.90
12688;DHT22;6408;59.388;17.798;2023-09-30T22:34:58;11.80;99.90
12688;DHT22;6408;59.388;17.798;2023-09-30T22:37:40;11.80;99.90
12688;DHT22;6408;59.388;17.798;2023-09-30T22:43:15;11.80;99.90
12688;DHT22;6408;59.388;17.798;2023-09-30T22:45:51;11.80;99.90
12688;DHT22;6408;59.388;17.798;2023-09-30T22:48:47;11.80;99.90
12688;DHT22;6408;59.388;17.798;2023-09-30T22:51:38;11.80;99.90
12688;DHT22;6408;59.388;17.798;2023-09-30T22:54:26;11.80;99.90
12688;DHT22;6408;59.388;17.798;2023-09-30T22:57:03;11.80;99.90
12688;DHT22;6408;59.388;17.798;2023-09-30T23:00:01;11.70;99.90
12688;DHT22;6408;59.388;17.798;2023-09-30T23:03:04;11.70;99.90
12688;DHT22;6408;59.388;17.798;2023-09-30T23:09:25;11.60;99.90
12688;DHT22;6408;59.388;17.798;2023-09-30T23:12:34;11.50;99.90
12688;DHT22;6408;59.388;17.798;2023-09-30T23:15:31;11.50;99.90
12688;DHT22;6408;59.388;17.798;2023-09-30T23:21:38;11.50;99.90
12688;DHT22;6408;59.388;17.798;2023-09-30T23:24:22;11.40;99.90
12688;DHT22;6408;59.388;17.798;2023-09-30T23:27:40;11.30;99.90
12688;DHT22;6408;59.388;17.798;2023-09-30T23:30:50;11.40;99.90
12688;DHT22;6408;59.388;17.798;2023-09-30T23:33:51;11.30;99.90
12688;DHT22;6408;59.388;17.798;2023-09-30T23:36:22;11.30;99.90
12688;DHT22;6408;59.388;17.798;2023-09-30T23:38:53;11.40;99.90
12688;DHT22;6408;59.388;17.798;2023-09-30T23:41:38;11.40;99.90
12688;DHT22;6408;59.388;17.798;2023-09-30T23:47:14;11.20;99.90
12688;DHT22;6408;59.388;17.798;2023-09-30T23:49:43;11.20;99.90
12688;DHT22;6408;59.388;17.798;2023-09-30T23:52:54;11.20;99.90
12688;DHT22;6408;59.388;17.798;2023-09-30T23:55:34;11.20;99.90
12688;DHT22;6408;59.388;17.798;2023-09-30T23:58:09;11.20;99.90
